Map

Track Data

SID SEASON NUMBER BASIN SUBBASIN NAME ISO_TIME NATURE LAT LON WMO_WIND WMO_PRES WMO_AGENCY TRACK_TYPE DIST2LAND LANDFALL IFLAG USA_AGENCY USA_ATCF_ID USA_LAT USA_LON USA_RECORD USA_STATUS USA_WIND USA_PRES USA_SSHS USA_R34_NE USA_R34_SE USA_R34_SW USA_R34_NW USA_R50_NE USA_R50_SE USA_R50_SW USA_R50_NW USA_R64_NE USA_R64_SE USA_R64_SW USA_R64_NW USA_POCI USA_ROCI USA_RMW USA_EYE TOKYO_LAT TOKYO_LON TOKYO_GRADE TOKYO_WIND TOKYO_PRES TOKYO_R50_DIR TOKYO_R50_LONG TOKYO_R50_SHORT TOKYO_R30_DIR TOKYO_R30_LONG TOKYO_R30_SHORT TOKYO_LAND CMA_LAT CMA_LON CMA_CAT CMA_WIND CMA_PRES HKO_LAT HKO_LON HKO_CAT HKO_WIND HKO_PRES NEWDELHI_LAT NEWDELHI_LON NEWDELHI_GRADE NEWDELHI_WIND NEWDELHI_PRES NEWDELHI_CI NEWDELHI_DP NEWDELHI_POCI REUNION_LAT REUNION_LON REUNION_TYPE REUNION_WIND REUNION_PRES REUNION_TNUM REUNION_CI REUNION_RMW REUNION_R34_NE REUNION_R34_SE REUNION_R34_SW REUNION_R34_NW REUNION_R50_NE REUNION_R50_SE REUNION_R50_SW REUNION_R50_NW REUNION_R64_NE REUNION_R64_SE REUNION_R64_SW REUNION_R64_NW BOM_LAT BOM_LON BOM_TYPE BOM_WIND BOM_PRES BOM_TNUM BOM_CI BOM_RMW BOM_R34_NE BOM_R34_SE BOM_R34_SW BOM_R34_NW BOM_R50_NE BOM_R50_SE BOM_R50_SW BOM_R50_NW BOM_R64_NE BOM_R64_SE BOM_R64_SW BOM_R64_NW BOM_ROCI BOM_POCI BOM_EYE BOM_POS_METHOD BOM_PRES_METHOD NADI_LAT NADI_LON NADI_CAT NADI_WIND NADI_PRES WELLINGTON_LAT WELLINGTON_LON WELLINGTON_WIND WELLINGTON_PRES DS824_LAT DS824_LON DS824_STAGE DS824_WIND DS824_PRES TD9636_LAT TD9636_LON TD9636_STAGE TD9636_WIND TD9636_PRES TD9635_LAT TD9635_LON TD9635_WIND TD9635_PRES TD9635_ROCI NEUMANN_LAT NEUMANN_LON NEUMANN_CLASS NEUMANN_WIND NEUMANN_PRES MLC_LAT MLC_LON MLC_CLASS MLC_WIND MLC_PRES USA_GUST BOM_GUST BOM_GUST_PER REUNION_GUST REUNION_GUST_PER USA_SEAHGT USA_SEARAD_NE USA_SEARAD_SE USA_SEARAD_SW USA_SEARAD_NW STORM_SPEED STORM_DIR
1950320N11084 1950 106 NI BB NOT_NAMED 1950-11-15 18:00:00 TS 10.9000 83.5000 main 345 345 O________O____ jtwc_io IO151950 10.9000 83.5000 -1 10.9000 83.5000 TC 1 11
1950320N11084 1950 106 NI BB NOT_NAMED 1950-11-15 21:00:00 TS 10.9550 83.5025 main 351 351 P________P____ IO151950 10.9550 83.5025 -1 10.9550 83.5025 TC 2 8
1950320N11084 1950 106 NI BB NOT_NAMED 1950-11-16 00:00:00 TS 11.1000 83.5000 main 357 357 O________O____ jtwc_io IO151950 11.1000 83.5000 -1 11.1000 83.5000 TC 25 4 0
1950320N11084 1950 106 NI BB NOT_NAMED 1950-11-16 03:00:00 TS 11.3978 83.4934 main 377 367 P________PO___ IO151950 11.3975 83.4925 -1 11.3975 83.4925 TC 25 11.4000 83.5000 1 7 0
1950320N11084 1950 106 NI BB NOT_NAMED 1950-11-16 06:00:00 TS 11.8081 83.5080 main 367 360 O________OP___ jtwc_io IO151950 11.8000 83.5000 -1 11.8000 83.5000 TC 25 11.8407 83.5399 1 9 4
1950320N11084 1950 106 NI BB NOT_NAMED 1950-11-16 09:00:00 TS 12.2514 83.5565 main 370 364 P________PP___ IO151950 12.2425 83.5499 -1 12.2425 83.5499 TC 25 12.2752 83.5739 1 9 6
1950320N11084 1950 106 NI BB NOT_NAMED 1950-11-16 12:00:00 TS 12.6990 83.5987 main 364 358 O________OP___ jtwc_io IO151950 12.7000 83.6000 -1 12.7000 83.6000 TC 25 12.6971 83.5960 1 9 3
1950320N11084 1950 106 NI BB NOT_NAMED 1950-11-16 15:00:00 TS 13.1000 83.6000 main 358 357 P________PO___ IO151950 13.1000 83.6001 -1 13.1000 83.6001 TC 25 13.1000 83.6000 1 8 0
1950320N11084 1950 106 NI BB NOT_NAMED 1950-11-16 18:00:00 TS 13.4947 83.5963 main 357 332 O________OP___ jtwc_io IO151950 13.5000 83.6000 -1 13.5000 83.6000 TC 25 13.4840 83.5890 1 8 0
1950320N11084 1950 106 NI BB NOT_NAMED 1950-11-16 21:00:00 TS 13.9198 83.6093 main 332 298 P________PP___ IO151950 13.9425 83.6127 -1 13.9425 83.6127 TC 25 13.8743 83.6026 1 9 7
1950320N11084 1950 106 NI BB NOT_NAMED 1950-11-17 00:00:00 TS 14.3675 83.6966 main 288 257 O________OP___ jtwc_io IO151950 14.4000 83.7000 -1 14.4000 83.7000 TC 25 14.3025 83.6897 1 9 17
1950320N11084 1950 106 NI BB NOT_NAMED 1950-11-17 03:00:00 TS 14.8032 83.8788 main 264 247 P________PO___ IO151950 14.8048 83.8681 -1 14.8048 83.8681 TC 25 14.8000 83.9000 1 11 28
1950320N11084 1950 106 NI BB NOT_NAMED 1950-11-17 06:00:00 TS 15.3399 84.2261 main 249 239 O________OP___ jtwc_io IO151950 15.3000 84.2000 -1 15.3000 84.2000 TC 25 15.4197 84.2784 1 15 34
1950320N11084 1950 106 NI BB NOT_NAMED 1950-11-17 09:00:00 TS 16.0486 84.7593 main 247 217 P________PP___ IO151950 16.0202 84.7471 -1 16.0202 84.7471 TC 25 16.1055 84.7838 1 19 37
1950320N11084 1950 106 NI BB NOT_NAMED 1950-11-17 12:00:00 TS 16.8045 85.3909 main 217 207 O________OP___ jtwc_io IO151950 16.8000 85.4000 -1 16.8000 85.4000 TC 25 16.8134 85.3726 1 19 40
1950320N11084 1950 106 NI BB NOT_NAMED 1950-11-17 15:00:00 TS 17.4815 85.9954 main 207 207 P________PO___ IO151950 17.4722 85.9931 -1 17.4722 85.9931 TC 30 17.5000 86.0000 1 18 42
1950320N11084 1950 106 NI BB NOT_NAMED 1950-11-17 18:00:00 TS 18.1081 86.6068 main 207 167 O________OP___ jtwc_io IO151950 18.1000 86.6000 -1 18.1000 86.6000 TC 35 18.1243 86.6206 1 17 44
1950320N11084 1950 106 NI BB NOT_NAMED 1950-11-17 21:00:00 TS 18.7209 87.2551 main 173 160 P________PP___ IO151950 18.7224 87.2502 -1 18.7224 87.2502 TC 35 18.7179 87.2648 1 17 46
1950320N11084 1950 106 NI BB NOT_NAMED 1950-11-18 00:00:00 TS 19.2925 87.9006 main 168 168 O________OP___ jtwc_io IO151950 19.3000 87.9000 -1 19.3000 87.9000 TC 35 19.2775 87.9017 1 16 47
1950320N11084 1950 106 NI BB NOT_NAMED 1950-11-18 03:00:00 TS 19.8199 88.5201 main 186 145 P________PO___ IO151950 19.8299 88.5302 -1 19.8299 88.5302 TC 35 19.8000 88.5000 3 15 48
1950320N11084 1950 106 NI BB NOT_NAMED 1950-11-18 06:00:00 TS 20.2912 89.0946 main 145 108 O________OP___ jtwc_io IO151950 20.3000 89.1000 -1 20.3000 89.1000 TC 35 20.2735 89.0838 3 13 49
1950320N11084 1950 106 NI BB NOT_NAMED 1950-11-18 09:00:00 TS 20.7048 89.5972 main 113 78 P________PP___ IO151950 20.6998 89.5880 -1 20.6998 89.5880 TC 30 20.7149 89.6154 3 12 46
1950320N11084 1950 106 NI BB NOT_NAMED 1950-11-18 12:00:00 TS 21.1163 90.0215 main 78 30 O________OP___ jtwc_io IO151950 21.1000 90.0000 -1 21.1000 90.0000 TC 25 21.1488 90.0644 3 12 40
1950320N11084 1950 106 NI BB NOT_NAMED 1950-11-18 15:00:00 TS 21.5900 90.4065 main 30 0 P________PO___ IO151950 21.5850 90.4098 -1 21.5850 90.4098 TC 25 21.6000 90.4000 1 12 31
1950320N11084 1950 106 NI BB NOT_NAMED 1950-11-18 18:00:00 TS 22.0950 90.6609 main 0 0 O________OP___ jtwc_io IO151950 22.1000 90.7000 -1 22.1000 90.7000 TC 25 22.0876 90.6024 1 11 18
1950320N11084 1950 106 NI BB NOT_NAMED 1950-11-18 21:00:00 TS 22.6059 90.7584 main 10 0 P________PP___ IO151950 22.6049 90.8053 -1 22.6049 90.8053 TC 25 22.6072 90.6959 1 10 5
1950320N11084 1950 106 NI BB NOT_NAMED 1950-11-19 00:00:00 TS 23.1241 90.7582 main 0 0 O________OP___ jtwc_io IO151950 23.1000 90.8000 -1 23.1000 90.8000 TC 25 23.1483 90.7164 1 11 357
1950320N11084 1950 106 NI BB NOT_NAMED 1950-11-19 03:00:00 NR 23.7000 90.7000 main 0 __________O___ IO151950 -1 TC 23.7000 90.7000 1 12 354

About IBTrACS Database

This database is a web-friendly format of International Best Track Archive for Climate Stewardship (IBTrACS), a global best track data archive curated by NOAA dating back to 1842.

Updated: 2021-12-06